sensor_id;sensor_type;location;lat;lon;timestamp;temperature;humidity
5520;DHT22;2782;52.362;10.012;2022-11-20T00:00:43;19.60;59.10
5520;DHT22;2782;52.362;10.012;2022-11-20T00:01:44;19.60;59.10
5520;DHT22;2782;52.362;10.012;2022-11-20T00:02:45;19.60;59.00
5520;DHT22;2782;52.362;10.012;2022-11-20T00:03:47;19.60;59.00
5520;DHT22;2782;52.362;10.012;2022-11-20T00:04:48;19.60;59.10
5520;DHT22;2782;52.362;10.012;2022-11-20T00:05:51;19.60;59.00
5520;DHT22;2782;52.362;10.012;2022-11-20T00:06:52;19.60;58.90
5520;DHT22;2782;52.362;10.012;2022-11-20T00:07:53;19.60;58.80
5520;DHT22;2782;52.362;10.012;2022-11-20T00:08:56;19.60;58.80
5520;DHT22;2782;52.362;10.012;2022-11-20T00:09:58;19.60;58.90
5520;DHT22;2782;52.362;10.012;2022-11-20T00:11:03;19.60;58.90
5520;DHT22;2782;52.362;10.012;2022-11-20T00:12:05;19.60;58.80
5520;DHT22;2782;52.362;10.012;2022-11-20T00:13:07;19.60;58.80
5520;DHT22;2782;52.362;10.012;2022-11-20T00:14:09;19.60;58.80
5520;DHT22;2782;52.362;10.012;2022-11-20T00:15:10;19.60;58.90
5520;DHT22;2782;52.362;10.012;2022-11-20T00:16:16;19.60;58.80
5520;DHT22;2782;52.362;10.012;2022-11-20T00:17:17;19.50;58.80
5520;DHT22;2782;52.362;10.012;2022-11-20T00:18:19;19.60;58.90
5520;DHT22;2782;52.362;10.012;2022-11-20T00:19:19;19.50;58.80
5520;DHT22;2782;52.362;10.012;2022-11-20T00:20:21;19.60;58.90
5520;DHT22;2782;52.362;10.012;2022-11-20T00:21:25;19.50;58.80
5520;DHT22;2782;52.362;10.012;2022-11-20T00:22:27;19.50;58.90
5520;DHT22;2782;52.362;10.012;2022-11-20T00:23:28;19.50;58.90
5520;DHT22;2782;52.362;10.012;2022-11-20T00:24:29;19.50;58.90
5520;DHT22;2782;52.362;10.012;2022-11-20T00:25:30;19.50;59.00
5520;DHT22;2782;52.362;10.012;2022-11-20T00:26:32;19.50;58.90
5520;DHT22;2782;52.362;10.012;2022-11-20T00:27:33;19.50;58.90
5520;DHT22;2782;52.362;10.012;2022-11-20T00:28:34;19.50;58.90
5520;DHT22;2782;52.362;10.012;2022-11-20T00:29:35;19.50;58.90
5520;DHT22;2782;52.362;10.012;2022-11-20T00:30:37;19.50;58.90
5520;DHT22;2782;52.362;10.012;2022-11-20T00:31:38;19.50;58.90
5520;DHT22;2782;52.362;10.012;2022-11-20T00:32:39;19.50;58.90
5520;DHT22;2782;52.362;10.012;2022-11-20T00:33:41;19.50;58.90
5520;DHT22;2782;52.362;10.012;2022-11-20T00:34:43;19.50;58.90
5520;DHT22;2782;52.362;10.012;2022-11-20T00:35:43;19.50;58.90
5520;DHT22;2782;52.362;10.012;2022-11-20T00:36:46;19.40;58.80
5520;DHT22;2782;52.362;10.012;2022-11-20T00:37:47;19.40;58.80
5520;DHT22;2782;52.362;10.012;2022-11-20T00:38:51;19.40;58.80
5520;DHT22;2782;52.362;10.012;2022-11-20T00:39:52;19.40;58.90
5520;DHT22;2782;52.362;10.012;2022-11-20T00:40:56;19.40;58.90
5520;DHT22;2782;52.362;10.012;2022-11-20T00:41:58;19.40;58.90
5520;DHT22;2782;52.362;10.012;2022-11-20T00:43:01;19.40;58.90
5520;DHT22;2782;52.362;10.012;2022-11-20T00:44:02;19.40;58.90
5520;DHT22;2782;52.362;10.012;2022-11-20T00:45:04;19.40;58.90
5520;DHT22;2782;52.362;10.012;2022-11-20T00:46:07;19.40;58.90
5520;DHT22;2782;52.362;10.012;2022-11-20T00:47:09;19.40;58.80
5520;DHT22;2782;52.362;10.012;2022-11-20T00:48:10;19.40;58.90
5520;DHT22;2782;52.362;10.012;2022-11-20T00:49:11;19.40;58.90
5520;DHT22;2782;52.362;10.012;2022-11-20T00:50:13;19.40;58.90
5520;DHT22;2782;52.362;10.012;2022-11-20T00:51:15;19.40;58.90
5520;DHT22;2782;52.362;10.012;2022-11-20T00:52:18;19.40;58.90
5520;DHT22;2782;52.362;10.012;2022-11-20T00:53:20;19.30;58.80
5520;DHT22;2782;52.362;10.012;2022-11-20T00:54:22;19.30;58.80
5520;DHT22;2782;52.362;10.012;2022-11-20T00:55:23;19.40;58.80
5520;DHT22;2782;52.362;10.012;2022-11-20T00:56:24;19.30;58.80
5520;DHT22;2782;52.362;10.012;2022-11-20T00:57:26;19.30;58.80
5520;DHT22;2782;52.362;10.012;2022-11-20T00:58:30;19.30;58.70
5520;DHT22;2782;52.362;10.012;2022-11-20T00:59:32;19.30;58.80
5520;DHT22;2782;52.362;10.012;2022-11-20T01:00:33;19.30;58.90
5520;DHT22;2782;52.362;10.012;2022-11-20T01:01:36;19.30;58.80
5520;DHT22;2782;52.362;10.012;2022-11-20T01:02:37;19.30;58.80
5520;DHT22;2782;52.362;10.012;2022-11-20T01:03:40;19.30;58.80
5520;DHT22;2782;52.362;10.012;2022-11-20T01:04:41;19.30;58.90
5520;DHT22;2782;52.362;10.012;2022-11-20T01:05:42;19.30;58.90
5520;DHT22;2782;52.362;10.012;2022-11-20T01:06:43;19.30;58.90
5520;DHT22;2782;52.362;10.012;2022-11-20T01:07:46;19.20;58.80
5520;DHT22;2782;52.362;10.012;2022-11-20T01:08:48;19.30;58.90
5520;DHT22;2782;52.362;10.012;2022-11-20T01:09:50;19.30;58.80
5520;DHT22;2782;52.362;10.012;2022-11-20T01:10:51;19.30;58.90
5520;DHT22;2782;52.362;10.012;2022-11-20T01:11:53;19.30;58.90
5520;DHT22;2782;52.362;10.012;2022-11-20T01:12:54;19.30;58.90
5520;DHT22;2782;52.362;10.012;2022-11-20T01:14:13;19.30;58.80
5520;DHT22;2782;52.362;10.012;2022-11-20T01:15:15;19.20;58.80
5520;DHT22;2782;52.362;10.012;2022-11-20T01:16:17;19.20;58.70
5520;DHT22;2782;52.362;10.012;2022-11-20T01:17:20;19.20;58.80
5520;DHT22;2782;52.362;10.012;2022-11-20T01:18:20;19.20;58.70
5520;DHT22;2782;52.362;10.012;2022-11-20T01:19:23;19.20;58.80
5520;DHT22;2782;52.362;10.012;2022-11-20T01:20:24;19.20;58.80
5520;DHT22;2782;52.362;10.012;2022-11-20T01:21:27;19.20;58.80
5520;DHT22;2782;52.362;10.012;2022-11-20T01:22:29;19.20;58.80
5520;DHT22;2782;52.362;10.012;2022-11-20T01:23:33;19.20;58.80
5520;DHT22;2782;52.362;10.012;2022-11-20T01:24:34;19.20;58.80
5520;DHT22;2782;52.362;10.012;2022-11-20T01:25:36;19.20;58.80
5520;DHT22;2782;52.362;10.012;2022-11-20T01:26:38;19.20;58.70
5520;DHT22;2782;52.362;10.012;2022-11-20T01:27:40;19.20;58.70
5520;DHT22;2782;52.362;10.012;2022-11-20T01:28:42;19.10;58.70
5520;DHT22;2782;52.362;10.012;2022-11-20T01:29:44;19.20;58.80
5520;DHT22;2782;52.362;10.012;2022-11-20T01:30:44;19.10;58.70
5520;DHT22;2782;52.362;10.012;2022-11-20T01:31:46;19.20;58.80
5520;DHT22;2782;52.362;10.012;2022-11-20T01:32:47;19.10;58.70
5520;DHT22;2782;52.362;10.012;2022-11-20T01:33:51;19.10;58.70
5520;DHT22;2782;52.362;10.012;2022-11-20T01:34:52;19.20;58.80
5520;DHT22;2782;52.362;10.012;2022-11-20T01:36:03;19.10;58.80
5520;DHT22;2782;52.362;10.012;2022-11-20T01:37:04;19.10;58.90
5520;DHT22;2782;52.362;10.012;2022-11-20T01:38:06;19.10;58.90
5520;DHT22;2782;52.362;10.012;2022-11-20T01:39:11;19.10;59.00
5520;DHT22;2782;52.362;10.012;2022-11-20T01:40:13;19.10;59.10
5520;DHT22;2782;52.362;10.012;2022-11-20T01:41:15;19.10;59.00
5520;DHT22;2782;52.362;10.012;2022-11-20T01:42:46;19.10;59.00
5520;DHT22;2782;52.362;10.012;2022-11-20T01:44:06;19.10;59.00
5520;DHT22;2782;52.362;10.012;2022-11-20T01:46:50;19.00;59.00
5520;DHT22;2782;52.362;10.012;2022-11-20T01:47:54;19.00;59.10
5520;DHT22;2782;52.362;10.012;2022-11-20T01:48:59;19.00;59.20
5520;DHT22;2782;52.362;10.012;2022-11-20T01:50:05;19.00;59.10
5520;DHT22;2782;52.362;10.012;2022-11-20T01:51:10;19.00;59.10
5520;DHT22;2782;52.362;10.012;2022-11-20T01:52:17;19.00;59.10
5520;DHT22;2782;52.362;10.012;2022-11-20T01:53:22;19.00;59.10
5520;DHT22;2782;52.362;10.012;2022-11-20T01:54:33;19.00;59.10
5520;DHT22;2782;52.362;10.012;2022-11-20T01:55:41;19.00;59.20
5520;DHT22;2782;52.362;10.012;2022-11-20T01:56:45;19.00;59.20
5520;DHT22;2782;52.362;10.012;2022-11-20T01:57:50;19.00;59.30
5520;DHT22;2782;52.362;10.012;2022-11-20T01:58:52;19.00;59.40
5520;DHT22;2782;52.362;10.012;2022-11-20T02:00:01;19.00;59.20
5520;DHT22;2782;52.362;10.012;2022-11-20T02:01:04;19.00;59.30
5520;DHT22;2782;52.362;10.012;2022-11-20T02:02:05;19.00;59.50
5520;DHT22;2782;52.362;10.012;2022-11-20T02:03:08;18.90;59.20
5520;DHT22;2782;52.362;10.012;2022-11-20T02:04:13;18.90;59.20
5520;DHT22;2782;52.362;10.012;2022-11-20T02:05:19;19.00;59.30
5520;DHT22;2782;52.362;10.012;2022-11-20T02:06:25;18.90;59.20
5520;DHT22;2782;52.362;10.012;2022-11-20T02:07:27;18.90;59.20
5520;DHT22;2782;52.362;10.012;2022-11-20T02:08:29;18.90;59.20
5520;DHT22;2782;52.362;10.012;2022-11-20T02:09:32;18.90;59.30
5520;DHT22;2782;52.362;10.012;2022-11-20T02:10:34;18.90;59.20
5520;DHT22;2782;52.362;10.012;2022-11-20T02:11:36;18.90;59.20
5520;DHT22;2782;52.362;10.012;2022-11-20T02:12:36;18.90;59.20
5520;DHT22;2782;52.362;10.012;2022-11-20T02:13:58;18.90;59.30
5520;DHT22;2782;52.362;10.012;2022-11-20T02:15:00;18.90;59.20
5520;DHT22;2782;52.362;10.012;2022-11-20T02:16:02;18.90;59.20
5520;DHT22;2782;52.362;10.012;2022-11-20T02:17:03;18.90;59.30
5520;DHT22;2782;52.362;10.012;2022-11-20T02:18:05;18.90;59.30
5520;DHT22;2782;52.362;10.012;2022-11-20T02:19:11;18.90;59.30
5520;DHT22;2782;52.362;10.012;2022-11-20T02:20:15;18.90;59.40
5520;DHT22;2782;52.362;10.012;2022-11-20T02:21:28;18.80;59.30
5520;DHT22;2782;52.362;10.012;2022-11-20T02:22:35;18.90;59.30
5520;DHT22;2782;52.362;10.012;2022-11-20T02:23:52;18.90;59.40
5520;DHT22;2782;52.362;10.012;2022-11-20T02:24:54;18.80;59.30
5520;DHT22;2782;52.362;10.012;2022-11-20T02:25:55;18.80;59.40
5520;DHT22;2782;52.362;10.012;2022-11-20T02:27:01;18.80;59.30
5520;DHT22;2782;52.362;10.012;2022-11-20T02:28:03;18.80;59.30
5520;DHT22;2782;52.362;10.012;2022-11-20T02:29:05;18.80;59.50
5520;DHT22;2782;52.362;10.012;2022-11-20T02:30:07;18.80;59.40
5520;DHT22;2782;52.362;10.012;2022-11-20T02:31:09;18.80;59.50
5520;DHT22;2782;52.362;10.012;2022-11-20T02:32:18;18.80;59.40
5520;DHT22;2782;52.362;10.012;2022-11-20T02:33:19;18.80;59.30
5520;DHT22;2782;52.362;10.012;2022-11-20T02:34:20;18.80;59.50
5520;DHT22;2782;52.362;10.012;2022-11-20T02:35:42;18.80;59.50
5520;DHT22;2782;52.362;10.012;2022-11-20T02:36:44;18.80;59.50
5520;DHT22;2782;52.362;10.012;2022-11-20T02:37:48;18.80;59.50
5520;DHT22;2782;52.362;10.012;2022-11-20T02:38:50;18.80;59.50
5520;DHT22;2782;52.362;10.012;2022-11-20T02:39:53;18.80;59.60
5520;DHT22;2782;52.362;10.012;2022-11-20T02:40:54;18.80;59.50
5520;DHT22;2782;52.362;10.012;2022-11-20T02:41:56;18.70;59.40
5520;DHT22;2782;52.362;10.012;2022-11-20T02:42:57;18.70;59.50
5520;DHT22;2782;52.362;10.012;2022-11-20T02:43:59;18.70;59.50
5520;DHT22;2782;52.362;10.012;2022-11-20T02:44:59;18.70;59.50
5520;DHT22;2782;52.362;10.012;2022-11-20T02:46:01;18.70;59.60
5520;DHT22;2782;52.362;10.012;2022-11-20T02:47:02;18.70;59.50
5520;DHT22;2782;52.362;10.012;2022-11-20T02:48:06;18.70;59.60
5520;DHT22;2782;52.362;10.012;2022-11-20T02:49:07;18.70;59.50
5520;DHT22;2782;52.362;10.012;2022-11-20T02:50:09;18.70;59.60
5520;DHT22;2782;52.362;10.012;2022-11-20T02:51:10;18.70;59.50
5520;DHT22;2782;52.362;10.012;2022-11-20T02:52:12;18.70;59.50
5520;DHT22;2782;52.362;10.012;2022-11-20T02:53:12;18.70;59.50
5520;DHT22;2782;52.362;10.012;2022-11-20T02:54:14;18.70;59.60
5520;DHT22;2782;52.362;10.012;2022-11-20T02:55:17;18.70;59.60
5520;DHT22;2782;52.362;10.012;2022-11-20T02:56:18;18.70;59.50
5520;DHT22;2782;52.362;10.012;2022-11-20T02:57:20;18.70;59.60
5520;DHT22;2782;52.362;10.012;2022-11-20T02:58:21;18.70;59.50
5520;DHT22;2782;52.362;10.012;2022-11-20T02:59:22;18.70;59.80
5520;DHT22;2782;52.362;10.012;2022-11-20T03:00:23;18.70;59.50
5520;DHT22;2782;52.362;10.012;2022-11-20T03:01:26;18.70;59.60
5520;DHT22;2782;52.362;10.012;2022-11-20T03:02:29;18.70;59.50
5520;DHT22;2782;52.362;10.012;2022-11-20T03:03:31;18.60;59.50
5520;DHT22;2782;52.362;10.012;2022-11-20T03:04:32;18.60;59.50
5520;DHT22;2782;52.362;10.012;2022-11-20T03:05:34;18.60;59.70
5520;DHT22;2782;52.362;10.012;2022-11-20T03:06:34;18.60;59.50
5520;DHT22;2782;52.362;10.012;2022-11-20T03:07:36;18.60;59.50
5520;DHT22;2782;52.362;10.012;2022-11-20T03:08:37;18.60;59.50
5520;DHT22;2782;52.362;10.012;2022-11-20T03:09:38;18.60;59.70
5520;DHT22;2782;52.362;10.012;2022-11-20T03:10:41;18.60;59.70
5520;DHT22;2782;52.362;10.012;2022-11-20T03:11:43;18.60;59.60
5520;DHT22;2782;52.362;10.012;2022-11-20T03:12:43;18.60;59.60
5520;DHT22;2782;52.362;10.012;2022-11-20T03:13:45;18.60;59.60
5520;DHT22;2782;52.362;10.012;2022-11-20T03:14:46;18.60;59.50
5520;DHT22;2782;52.362;10.012;2022-11-20T03:15:48;18.60;60.10
5520;DHT22;2782;52.362;10.012;2022-11-20T03:16:48;18.60;59.40
5520;DHT22;2782;52.362;10.012;2022-11-20T03:17:53;18.60;59.50
5520;DHT22;2782;52.362;10.012;2022-11-20T03:18:54;18.50;59.40
5520;DHT22;2782;52.362;10.012;2022-11-20T03:19:56;18.60;60.00
5520;DHT22;2782;52.362;10.012;2022-11-20T03:20:57;18.50;59.40
5520;DHT22;2782;52.362;10.012;2022-11-20T03:21:59;18.50;59.40
5520;DHT22;2782;52.362;10.012;2022-11-20T03:23:01;18.50;59.40
5520;DHT22;2782;52.362;10.012;2022-11-20T03:24:03;18.50;59.40
5520;DHT22;2782;52.362;10.012;2022-11-20T03:25:05;18.50;59.40
5520;DHT22;2782;52.362;10.012;2022-11-20T03:26:09;18.50;59.40
5520;DHT22;2782;52.362;10.012;2022-11-20T03:27:10;18.50;59.40
5520;DHT22;2782;52.362;10.012;2022-11-20T03:28:12;18.50;59.60
5520;DHT22;2782;52.362;10.012;2022-11-20T03:29:13;18.50;59.50
5520;DHT22;2782;52.362;10.012;2022-11-20T03:30:14;18.50;59.40
5520;DHT22;2782;52.362;10.012;2022-11-20T03:31:17;18.50;59.40
5520;DHT22;2782;52.362;10.012;2022-11-20T03:32:20;18.40;59.30
5520;DHT22;2782;52.362;10.012;2022-11-20T03:33:21;18.40;59.30
5520;DHT22;2782;52.362;10.012;2022-11-20T03:34:22;18.50;59.40
5520;DHT22;2782;52.362;10.012;2022-11-20T03:35:23;18.50;59.40
5520;DHT22;2782;52.362;10.012;2022-11-20T03:36:26;18.50;59.40
5520;DHT22;2782;52.362;10.012;2022-11-20T03:37:27;18.50;59.50
5520;DHT22;2782;52.362;10.012;2022-11-20T03:38:29;18.40;59.40
5520;DHT22;2782;52.362;10.012;2022-11-20T03:39:30;18.50;59.50
5520;DHT22;2782;52.362;10.012;2022-11-20T03:40:33;18.40;59.40
5520;DHT22;2782;52.362;10.012;2022-11-20T03:41:38;18.40;59.30
5520;DHT22;2782;52.362;10.012;2022-11-20T03:42:40;18.40;59.40
5520;DHT22;2782;52.362;10.012;2022-11-20T03:43:47;18.40;59.40
5520;DHT22;2782;52.362;10.012;2022-11-20T03:44:49;18.40;59.40
5520;DHT22;2782;52.362;10.012;2022-11-20T03:45:50;18.40;59.30
5520;DHT22;2782;52.362;10.012;2022-11-20T03:46:52;18.40;59.50
5520;DHT22;2782;52.362;10.012;2022-11-20T03:47:52;18.40;59.30
5520;DHT22;2782;52.362;10.012;2022-11-20T03:48:54;18.40;59.40
5520;DHT22;2782;52.362;10.012;2022-11-20T03:49:55;18.40;59.40
5520;DHT22;2782;52.362;10.012;2022-11-20T03:51:07;18.30;59.30
5520;DHT22;2782;52.362;10.012;2022-11-20T03:52:08;18.40;59.50
5520;DHT22;2782;52.362;10.012;2022-11-20T03:53:10;18.40;59.40
5520;DHT22;2782;52.362;10.012;2022-11-20T03:54:10;18.40;59.40
5520;DHT22;2782;52.362;10.012;2022-11-20T03:55:12;18.30;59.30
5520;DHT22;2782;52.362;10.012;2022-11-20T03:56:14;18.40;59.40
5520;DHT22;2782;52.362;10.012;2022-11-20T03:57:18;18.30;59.40
5520;DHT22;2782;52.362;10.012;2022-11-20T03:58:18;18.30;59.50
5520;DHT22;2782;52.362;10.012;2022-11-20T03:59:20;18.30;59.30
5520;DHT22;2782;52.362;10.012;2022-11-20T04:00:21;18.30;59.30
5520;DHT22;2782;52.362;10.012;2022-11-20T04:01:25;18.30;59.80
5520;DHT22;2782;52.362;10.012;2022-11-20T04:02:26;18.30;59.20
5520;DHT22;2782;52.362;10.012;2022-11-20T04:03:27;18.30;59.90
5520;DHT22;2782;52.362;10.012;2022-11-20T04:04:28;18.30;59.30
5520;DHT22;2782;52.362;10.012;2022-11-20T04:05:30;18.30;59.40
5520;DHT22;2782;52.362;10.012;2022-11-20T04:06:34;18.30;59.20
5520;DHT22;2782;52.362;10.012;2022-11-20T04:07:36;18.30;59.30
5520;DHT22;2782;52.362;10.012;2022-11-20T04:08:37;18.30;59.40
5520;DHT22;2782;52.362;10.012;2022-11-20T04:09:39;18.30;59.40
5520;DHT22;2782;52.362;10.012;2022-11-20T04:10:40;18.30;59.30
5520;DHT22;2782;52.362;10.012;2022-11-20T04:11:41;18.30;59.50
5520;DHT22;2782;52.362;10.012;2022-11-20T04:12:43;18.20;59.30
5520;DHT22;2782;52.362;10.012;2022-11-20T04:13:47;18.20;59.30
5520;DHT22;2782;52.362;10.012;2022-11-20T04:14:48;18.20;59.20
5520;DHT22;2782;52.362;10.012;2022-11-20T04:15:50;18.20;59.30
5520;DHT22;2782;52.362;10.012;2022-11-20T04:16:51;18.20;59.30
5520;DHT22;2782;52.362;10.012;2022-11-20T04:17:53;18.20;59.30
5520;DHT22;2782;52.362;10.012;2022-11-20T04:18:55;18.20;59.20
5520;DHT22;2782;52.362;10.012;2022-11-20T04:19:57;18.20;59.30
5520;DHT22;2782;52.362;10.012;2022-11-20T04:20:58;18.20;59.30
5520;DHT22;2782;52.362;10.012;2022-11-20T04:22:00;18.20;59.30
5520;DHT22;2782;52.362;10.012;2022-11-20T04:23:01;18.20;59.20
5520;DHT22;2782;52.362;10.012;2022-11-20T04:24:03;18.20;59.30
5520;DHT22;2782;52.362;10.012;2022-11-20T04:25:04;18.20;59.30
5520;DHT22;2782;52.362;10.012;2022-11-20T04:26:08;18.20;59.20
5520;DHT22;2782;52.362;10.012;2022-11-20T04:27:09;18.20;59.30
5520;DHT22;2782;52.362;10.012;2022-11-20T04:28:12;18.20;59.30
5520;DHT22;2782;52.362;10.012;2022-11-20T04:29:13;18.20;59.30
5520;DHT22;2782;52.362;10.012;2022-11-20T04:30:14;18.10;59.10
5520;DHT22;2782;52.362;10.012;2022-11-20T04:31:17;18.20;59.20
5520;DHT22;2782;52.362;10.012;2022-11-20T04:32:19;18.20;59.30
5520;DHT22;2782;52.362;10.012;2022-11-20T04:33:19;18.10;59.20
5520;DHT22;2782;52.362;10.012;2022-11-20T04:34:21;18.10;59.20
5520;DHT22;2782;52.362;10.012;2022-11-20T04:35:22;18.10;59.10
5520;DHT22;2782;52.362;10.012;2022-11-20T04:36:25;18.10;59.20
5520;DHT22;2782;52.362;10.012;2022-11-20T04:37:26;18.10;59.10
5520;DHT22;2782;52.362;10.012;2022-11-20T04:38:27;18.10;59.10
5520;DHT22;2782;52.362;10.012;2022-11-20T04:39:28;18.10;59.10
5520;DHT22;2782;52.362;10.012;2022-11-20T04:40:30;18.10;59.20
5520;DHT22;2782;52.362;10.012;2022-11-20T04:41:33;18.10;59.30
5520;DHT22;2782;52.362;10.012;2022-11-20T04:42:35;18.10;59.30
5520;DHT22;2782;52.362;10.012;2022-11-20T04:43:37;18.10;59.30
5520;DHT22;2782;52.362;10.012;2022-11-20T04:44:39;18.10;59.30
5520;DHT22;2782;52.362;10.012;2022-11-20T04:45:39;18.10;59.20
5520;DHT22;2782;52.362;10.012;2022-11-20T04:46:42;18.10;59.40
5520;DHT22;2782;52.362;10.012;2022-11-20T04:47:44;18.10;59.30
5520;DHT22;2782;52.362;10.012;2022-11-20T04:48:46;18.10;59.40
5520;DHT22;2782;52.362;10.012;2022-11-20T04:49:47;18.10;59.30
5520;DHT22;2782;52.362;10.012;2022-11-20T04:50:48;18.10;59.30
5520;DHT22;2782;52.362;10.012;2022-11-20T04:51:52;18.00;59.20
5520;DHT22;2782;52.362;10.012;2022-11-20T04:52:54;18.00;59.30
5520;DHT22;2782;52.362;10.012;2022-11-20T04:53:55;18.00;59.20
5520;DHT22;2782;52.362;10.012;2022-11-20T04:54:57;18.00;59.30
5520;DHT22;2782;52.362;10.012;2022-11-20T04:55:59;18.00;59.30
5520;DHT22;2782;52.362;10.012;2022-11-20T04:57:01;18.00;59.20
5520;DHT22;2782;52.362;10.012;2022-11-20T04:58:02;18.00;59.30
5520;DHT22;2782;52.362;10.012;2022-11-20T04:59:05;18.00;59.20
5520;DHT22;2782;52.362;10.012;2022-11-20T05:00:07;18.00;59.30
5520;DHT22;2782;52.362;10.012;2022-11-20T05:01:10;18.00;59.30
5520;DHT22;2782;52.362;10.012;2022-11-20T05:02:11;18.00;59.40
5520;DHT22;2782;52.362;10.012;2022-11-20T05:03:13;18.00;59.40
5520;DHT22;2782;52.362;10.012;2022-11-20T05:04:13;18.00;59.30
5520;DHT22;2782;52.362;10.012;2022-11-20T05:05:15;18.00;59.30
5520;DHT22;2782;52.362;10.012;2022-11-20T05:06:18;18.00;59.30
5520;DHT22;2782;52.362;10.012;2022-11-20T05:07:20;18.00;59.30
5520;DHT22;2782;52.362;10.012;2022-11-20T05:08:21;18.00;59.30
5520;DHT22;2782;52.362;10.012;2022-11-20T05:09:22;18.00;59.20
5520;DHT22;2782;52.362;10.012;2022-11-20T05:10:23;18.00;59.40
5520;DHT22;2782;52.362;10.012;2022-11-20T05:11:25;18.00;59.40
5520;DHT22;2782;52.362;10.012;2022-11-20T05:12:25;18.00;59.40
5520;DHT22;2782;52.362;10.012;2022-11-20T05:13:29;18.00;59.40
5520;DHT22;2782;52.362;10.012;2022-11-20T05:14:31;18.00;59.40
5520;DHT22;2782;52.362;10.012;2022-11-20T05:15:33;18.00;59.40
5520;DHT22;2782;52.362;10.012;2022-11-20T05:16:34;18.00;59.40
5520;DHT22;2782;52.362;10.012;2022-11-20T05:17:36;17.90;59.40
5520;DHT22;2782;52.362;10.012;2022-11-20T05:18:37;17.90;59.40
5520;DHT22;2782;52.362;10.012;2022-11-20T05:19:39;17.90;59.40
5520;DHT22;2782;52.362;10.012;2022-11-20T05:20:40;17.90;59.40
5520;DHT22;2782;52.362;10.012;2022-11-20T05:21:41;17.90;59.40
5520;DHT22;2782;52.362;10.012;2022-11-20T05:22:44;17.90;59.30
5520;DHT22;2782;52.362;10.012;2022-11-20T05:23:45;17.90;59.50
5520;DHT22;2782;52.362;10.012;2022-11-20T05:24:47;17.90;59.40
5520;DHT22;2782;52.362;10.012;2022-11-20T05:25:48;17.90;59.40
5520;DHT22;2782;52.362;10.012;2022-11-20T05:26:49;17.90;59.30
5520;DHT22;2782;52.362;10.012;2022-11-20T05:27:50;17.90;59.30
5520;DHT22;2782;52.362;10.012;2022-11-20T05:28:52;17.90;59.50
5520;DHT22;2782;52.362;10.012;2022-11-20T05:29:54;17.90;59.40
5520;DHT22;2782;52.362;10.012;2022-11-20T05:30:55;17.90;59.30
5520;DHT22;2782;52.362;10.012;2022-11-20T05:31:58;17.90;59.30
5520;DHT22;2782;52.362;10.012;2022-11-20T05:32:59;17.90;59.30
5520;DHT22;2782;52.362;10.012;2022-11-20T05:34:00;17.80;59.40
5520;DHT22;2782;52.362;10.012;2022-11-20T05:35:02;17.80;59.50
5520;DHT22;2782;52.362;10.012;2022-11-20T05:36:04;17.90;59.60
5520;DHT22;2782;52.362;10.012;2022-11-20T05:37:06;17.90;59.60
5520;DHT22;2782;52.362;10.012;2022-11-20T05:38:06;17.90;59.60
5520;DHT22;2782;52.362;10.012;2022-11-20T05:39:08;17.80;59.40
5520;DHT22;2782;52.362;10.012;2022-11-20T05:40:11;17.80;59.40
5520;DHT22;2782;52.362;10.012;2022-11-20T05:41:15;17.80;59.50
5520;DHT22;2782;52.362;10.012;2022-11-20T05:42:16;17.80;59.40
5520;DHT22;2782;52.362;10.012;2022-11-20T05:43:33;17.80;59.40
5520;DHT22;2782;52.362;10.012;2022-11-20T05:44:35;17.80;59.30
5520;DHT22;2782;52.362;10.012;2022-11-20T05:45:38;17.80;59.40
5520;DHT22;2782;52.362;10.012;2022-11-20T05:46:39;17.80;59.40
5520;DHT22;2782;52.362;10.012;2022-11-20T05:47:40;17.80;59.50
5520;DHT22;2782;52.362;10.012;2022-11-20T05:48:43;17.80;59.50
5520;DHT22;2782;52.362;10.012;2022-11-20T05:49:45;17.80;59.50
5520;DHT22;2782;52.362;10.012;2022-11-20T05:50:45;17.80;59.40
5520;DHT22;2782;52.362;10.012;2022-11-20T05:51:47;17.80;59.50
5520;DHT22;2782;52.362;10.012;2022-11-20T05:52:48;17.80;59.40
5520;DHT22;2782;52.362;10.012;2022-11-20T05:53:49;17.80;59.50
5520;DHT22;2782;52.362;10.012;2022-11-20T05:54:50;17.80;59.40
5520;DHT22;2782;52.362;10.012;2022-11-20T05:55:58;17.80;59.60
5520;DHT22;2782;52.362;10.012;2022-11-20T05:57:00;17.80;59.50
5520;DHT22;2782;52.362;10.012;2022-11-20T05:58:02;17.80;59.40
5520;DHT22;2782;52.362;10.012;2022-11-20T05:59:02;17.80;59.50
5520;DHT22;2782;52.362;10.012;2022-11-20T06:00:05;17.80;59.50
5520;DHT22;2782;52.362;10.012;2022-11-20T06:01:09;17.80;59.40
5520;DHT22;2782;52.362;10.012;2022-11-20T06:02:11;17.80;59.50
5520;DHT22;2782;52.362;10.012;2022-11-20T06:03:12;17.70;59.30
5520;DHT22;2782;52.362;10.012;2022-11-20T06:04:13;17.80;59.60
5520;DHT22;2782;52.362;10.012;2022-11-20T06:05:14;17.70;59.40
5520;DHT22;2782;52.362;10.012;2022-11-20T06:06:17;17.70;59.40
5520;DHT22;2782;52.362;10.012;2022-11-20T06:07:18;17.70;59.40
5520;DHT22;2782;52.362;10.012;2022-11-20T06:08:19;17.70;59.40
5520;DHT22;2782;52.362;10.012;2022-11-20T06:09:21;17.70;59.50
5520;DHT22;2782;52.362;10.012;2022-11-20T06:10:22;17.70;59.50
5520;DHT22;2782;52.362;10.012;2022-11-20T06:11:23;17.70;59.50
5520;DHT22;2782;52.362;10.012;2022-11-20T06:12:26;17.70;59.50
5520;DHT22;2782;52.362;10.012;2022-11-20T06:13:27;17.70;59.40
5520;DHT22;2782;52.362;10.012;2022-11-20T06:14:28;17.70;59.40
5520;DHT22;2782;52.362;10.012;2022-11-20T06:15:29;17.70;59.50
5520;DHT22;2782;52.362;10.012;2022-11-20T06:16:32;17.70;59.40
5520;DHT22;2782;52.362;10.012;2022-11-20T06:17:33;17.70;59.30
5520;DHT22;2782;52.362;10.012;2022-11-20T06:18:34;17.70;59.30
5520;DHT22;2782;52.362;10.012;2022-11-20T06:19:35;17.70;59.40
5520;DHT22;2782;52.362;10.012;2022-11-20T06:20:37;17.70;59.40
5520;DHT22;2782;52.362;10.012;2022-11-20T06:21:37;17.70;60.00
5520;DHT22;2782;52.362;10.012;2022-11-20T06:22:39;17.70;59.40
5520;DHT22;2782;52.362;10.012;2022-11-20T06:23:40;17.70;59.40
5520;DHT22;2782;52.362;10.012;2022-11-20T06:24:42;17.70;59.40
5520;DHT22;2782;52.362;10.012;2022-11-20T06:25:43;17.60;59.30
5520;DHT22;2782;52.362;10.012;2022-11-20T06:26:45;17.60;59.30
5520;DHT22;2782;52.362;10.012;2022-11-20T06:27:46;17.70;59.40
5520;DHT22;2782;52.362;10.012;2022-11-20T06:28:48;17.60;59.30
5520;DHT22;2782;52.362;10.012;2022-11-20T06:29:49;17.60;59.30
5520;DHT22;2782;52.362;10.012;2022-11-20T06:30:50;17.60;59.30
5520;DHT22;2782;52.362;10.012;2022-11-20T06:31:52;17.60;59.30
5520;DHT22;2782;52.362;10.012;2022-11-20T06:32:54;17.60;59.30
5520;DHT22;2782;52.362;10.012;2022-11-20T06:33:55;17.60;59.30
5520;DHT22;2782;52.362;10.012;2022-11-20T06:34:57;17.60;59.30
5520;DHT22;2782;52.362;10.012;2022-11-20T06:35:58;17.60;59.30
5520;DHT22;2782;52.362;10.012;2022-11-20T06:37:01;17.60;59.30
5520;DHT22;2782;52.362;10.012;2022-11-20T06:38:02;17.60;59.30
5520;DHT22;2782;52.362;10.012;2022-11-20T06:39:04;17.60;59.30
5520;DHT22;2782;52.362;10.012;2022-11-20T06:40:05;17.60;59.30
5520;DHT22;2782;52.362;10.012;2022-11-20T06:41:10;17.60;59.30
5520;DHT22;2782;52.362;10.012;2022-11-20T06:42:11;17.60;59.30